Time;durP1;ratioP1;P1;durP2;ratioP2;P2;SDS_P1;SDS_P2;PMS_P1;PMS_P2;Temp;Humidity;BMP_temperature;BMP_pressure;BME280_temperature;BME280_humidity;BME280_pressure;Samples;Min_cycle;Max_cycle;Signal;HPM_P1;HPM_P2
2022/12/30 00:00:46;;;;;;;4.40;1.73;;;20.10;51.10;;;;;;6087048;23;20519;-62
2022/12/30 00:03:12;;;;;;;3.92;1.58;;;20.10;51.10;;;;;;6083836;23;20022;-62
2022/12/30 00:05:37;;;;;;;3.53;1.75;;;20.10;51.00;;;;;;6084451;23;20873;-62
2022/12/30 00:08:03;;;;;;;3.83;1.70;;;20.10;51.00;;;;;;6060346;23;20090;-61
2022/12/30 00:10:29;;;;;;;3.70;1.83;;;20.10;51.00;;;;;;6086780;23;20831;-62
2022/12/30 00:35:14;;;;;;;3.38;1.42;;;20.00;50.80;;;;;;6085197;23;20626;-62
2022/12/30 00:37:40;;;;;;;5.15;1.75;;;20.00;50.90;;;;;;6084558;23;20062;-62
2022/12/30 00:40:06;;;;;;;3.67;1.52;;;20.00;50.70;;;;;;6086043;23;20427;-61
2022/12/30 00:45:16;;;;;;;3.03;1.70;;;20.00;50.60;;;;;;6085654;23;20094;-62
2022/12/30 00:47:43;;;;;;;3.50;1.35;;;20.00;50.50;;;;;;6085507;23;20117;-62
2022/12/30 00:58:21;;;;;;;2.83;1.48;;;19.90;50.40;;;;;;6086520;23;20073;-62
2022/12/30 01:00:47;;;;;;;3.60;1.40;;;19.90;50.30;;;;;;6088057;23;20446;-62
2022/12/30 01:03:13;;;;;;;2.90;1.35;;;19.90;50.30;;;;;;6086555;23;20018;-62
2022/12/30 01:05:40;;;;;;;3.30;1.67;;;19.90;50.30;;;;;;6062067;23;20015;-62
2022/12/30 01:08:06;;;;;;;4.03;1.50;;;19.90;50.30;;;;;;6085625;23;20010;-62
2022/12/30 01:10:32;;;;;;;4.05;1.60;;;19.90;50.20;;;;;;6085888;23;20121;-62
2022/12/30 01:12:57;;;;;;;5.03;1.85;;;19.90;50.20;;;;;;6087186;23;20134;-62
2022/12/30 01:15:23;;;;;;;4.15;1.85;;;19.90;50.20;;;;;;6087391;23;20018;-62
2022/12/30 01:17:49;;;;;;;4.68;1.83;;;19.90;50.20;;;;;;6087224;23;20391;-62
2022/12/30 01:20:15;;;;;;;3.95;1.85;;;19.90;50.30;;;;;;6087571;23;20447;-62
2022/12/30 01:22:41;;;;;;;5.30;1.50;;;19.90;50.20;;;;;;6086429;23;20026;-62
2022/12/30 01:25:07;;;;;;;4.22;1.55;;;19.90;50.20;;;;;;6085985;23;20022;-62
2022/12/30 01:27:33;;;;;;;3.05;1.17;;;19.80;50.20;;;;;;6085688;23;20111;-62
2022/12/30 01:29:59;;;;;;;3.85;1.67;;;19.80;50.20;;;;;;6085816;23;20114;-62
2022/12/30 01:32:27;;;;;;;3.38;1.63;;;19.80;50.20;;;;;;6084992;23;20015;-63
2022/12/30 01:34:55;;;;;;;3.78;1.52;;;19.80;50.20;;;;;;6087729;23;20018;-62
2022/12/30 01:37:21;;;;;;;3.22;1.42;;;19.80;50.20;;;;;;6086477;23;20069;-61
2022/12/30 01:39:47;;;;;;;3.33;1.52;;;19.80;50.20;;;;;;6087333;23;20019;-62
2022/12/30 01:42:37;;;;;;;4.78;1.58;;;19.80;50.20;;;;;;6086716;23;20033;-62
2022/12/30 01:45:22;;;;;;;3.53;1.27;;;19.80;50.10;;;;;;6087717;23;20455;-63
2022/12/30 01:48:00;;;;;;;4.50;1.55;;;19.70;50.30;;;;;;6086438;23;20556;-62
2022/12/30 01:50:44;;;;;;;2.97;1.40;;;19.70;50.20;;;;;;6086070;23;20443;-62
2022/12/30 01:53:12;;;;;;;3.88;1.30;;;19.70;50.30;;;;;;6086601;23;20391;-62
2022/12/30 01:55:50;;;;;;;3.45;1.50;;;19.70;50.20;;;;;;6087825;23;20085;-63
2022/12/30 01:58:27;;;;;;;3.53;1.40;;;19.70;50.20;;;;;;6086625;23;20396;-62
2022/12/30 02:00:52;;;;;;;4.40;1.60;;;19.70;50.20;;;;;;6087806;23;20045;-62
2022/12/30 02:03:19;;;;;;;4.22;1.60;;;19.70;50.20;;;;;;6086771;23;20439;-62
2022/12/30 02:05:46;;;;;;;3.08;1.30;;;19.70;50.10;;;;;;6087057;23;20018;-62
2022/12/30 02:08:15;;;;;;;4.93;1.52;;;19.70;50.00;;;;;;6086296;23;20014;-61
2022/12/30 02:10:47;;;;;;;3.67;1.27;;;19.70;50.00;;;;;;6087444;23;20439;-62
2022/12/30 02:13:14;;;;;;;2.30;1.30;;;19.70;50.00;;;;;;6084679;23;20029;-61
2022/12/30 02:15:56;;;;;;;3.75;1.38;;;19.70;50.00;;;;;;6087504;23;20046;-62
2022/12/30 02:18:46;;;;;;;2.65;1.15;;;19.70;50.00;;;;;;6084890;23;20086;-61
2022/12/30 02:21:27;;;;;;;4.20;1.42;;;19.70;50.00;;;;;;6085916;23;20048;-63
2022/12/30 02:24:27;;;;;;;2.90;1.45;;;19.60;49.90;;;;;;6087351;23;20375;-62
2022/12/30 02:27:29;;;;;;;2.65;1.50;;;19.60;49.90;;;;;;6087078;23;20046;-61
2022/12/30 02:30:30;;;;;;;2.75;1.10;;;19.60;49.90;;;;;;6085129;23;20018;-63
2022/12/30 02:33:33;;;;;;;2.58;1.25;;;19.60;49.90;;;;;;6067129;23;20022;-62
2022/12/30 02:36:26;;;;;;;2.65;1.10;;;19.60;49.80;;;;;;6086643;23;20046;-62
2022/12/30 02:39:19;;;;;;;2.80;1.25;;;19.60;49.90;;;;;;6085727;23;20030;-62
2022/12/30 02:44:52;;;;;;;3.00;1.42;;;19.50;49.90;;;;;;6088198;23;20463;-62
2022/12/30 02:47:26;;;;;;;2.30;1.23;;;19.50;50.00;;;;;;6085589;23;20748;-62
2022/12/30 02:52:44;;;;;;;2.78;1.10;;;19.50;49.90;;;;;;6085078;23;20026;-62
2022/12/30 02:55:10;;;;;;;3.63;1.45;;;19.50;50.00;;;;;;6085732;23;20030;-62
2022/12/30 02:57:36;;;;;;;2.63;1.20;;;19.50;50.00;;;;;;6086919;23;20335;-62
2022/12/30 03:06:44;;;;;;;2.35;1.08;;;19.50;50.00;;;;;;6083610;23;20026;-62
2022/12/30 03:09:31;;;;;;;2.55;1.30;;;19.50;50.00;;;;;;6085648;23;20077;-62
2022/12/30 03:12:10;;;;;;;3.03;1.17;;;19.50;50.00;;;;;;6083362;23;20418;-62
2022/12/30 03:14:49;;;;;;;3.63;1.20;;;19.50;50.00;;;;;;6085876;23;20061;-62
2022/12/30 03:17:34;;;;;;;3.97;1.48;;;19.50;50.00;;;;;;6086179;23;20014;-62
2022/12/30 03:20:13;;;;;;;3.25;1.35;;;19.50;50.00;;;;;;6087396;23;20046;-62
2022/12/30 03:28:14;;;;;;;2.78;1.20;;;19.40;50.00;;;;;;6086062;23;20125;-62
2022/12/30 03:30:46;;;;;;;2.08;1.05;;;19.40;49.90;;;;;;6085665;23;20089;-62
2022/12/30 03:33:12;;;;;;;2.80;1.08;;;19.40;49.90;;;;;;6083862;23;20026;-62
2022/12/30 03:35:48;;;;;;;2.35;1.23;;;19.40;49.90;;;;;;6086649;23;20117;-62
2022/12/30 03:38:18;;;;;;;2.85;1.13;;;19.40;50.10;;;;;;6084242;23;20026;-62
2022/12/30 03:40:47;;;;;;;2.28;1.27;;;19.40;50.00;;;;;;6087004;23;20010;-62
2022/12/30 03:43:14;;;;;;;2.92;1.20;;;19.40;50.00;;;;;;6083773;23;20080;-62
2022/12/30 03:45:40;;;;;;;2.42;1.13;;;19.40;50.00;;;;;;6085814;23;20022;-62
2022/12/30 03:48:05;;;;;;;3.15;1.30;;;19.40;50.00;;;;;;6081990;23;20085;-62
2022/12/30 03:50:31;;;;;;;4.80;1.23;;;19.40;50.00;;;;;;6085675;23;20022;-62
2022/12/30 03:52:57;;;;;;;2.47;1.38;;;19.40;50.00;;;;;;6082925;23;20057;-62
2022/12/30 03:55:22;;;;;;;2.08;1.35;;;19.40;49.90;;;;;;6085871;23;20010;-62
2022/12/30 03:57:48;;;;;;;4.50;1.30;;;19.40;49.90;;;;;;6086424;23;20033;-62
2022/12/30 04:00:14;;;;;;;2.55;1.10;;;19.30;49.90;;;;;;6086228;23;20121;-62
2022/12/30 04:02:39;;;;;;;3.05;1.50;;;19.40;50.00;;;;;;6086350;23;20026;-62
2022/12/30 04:05:07;;;;;;;3.55;1.10;;;19.30;49.90;;;;;;6084156;23;20906;-62
2022/12/30 04:07:33;;;;;;;3.28;1.45;;;19.30;49.80;;;;;;6084701;23;20030;-62
2022/12/30 04:09:59;;;;;;;2.40;1.20;;;19.30;49.90;;;;;;6084100;23;20015;-62
2022/12/30 04:12:25;;;;;;;2.65;0.95;;;19.30;49.90;;;;;;6085460;23;20014;-62
2022/12/30 04:14:51;;;;;;;5.05;1.30;;;19.30;49.70;;;;;;6086180;23;20070;-63
2022/12/30 04:17:16;;;;;;;2.03;0.95;;;19.30;49.70;;;;;;6086625;23;20038;-62
2022/12/30 04:19:42;;;;;;;2.63;1.00;;;19.30;49.70;;;;;;6084757;23;20434;-62
2022/12/30 04:22:08;;;;;;;3.65;1.33;;;19.30;49.80;;;;;;6085664;23;20014;-62
2022/12/30 04:24:33;;;;;;;3.65;1.27;;;19.30;49.80;;;;;;6084037;23;20061;-62
2022/12/30 04:26:59;;;;;;;1.73;1.02;;;19.30;49.70;;;;;;6084725;23;20339;-62
2022/12/30 04:29:25;;;;;;;2.90;1.38;;;19.30;49.60;;;;;;6085949;23;20089;-62
2022/12/30 04:31:50;;;;;;;2.90;1.10;;;19.30;49.70;;;;;;6061969;23;20331;-62
2022/12/30 04:34:16;;;;;;;2.40;1.23;;;19.30;49.70;;;;;;6087639;23;20499;-62
2022/12/30 04:36:43;;;;;;;3.45;1.20;;;19.30;49.70;;;;;;6085728;23;20691;-62
2022/12/30 04:39:08;;;;;;;2.20;1.15;;;19.30;49.70;;;;;;6061208;23;20018;-62
2022/12/30 04:41:34;;;;;;;1.75;0.95;;;19.30;49.70;;;;;;6087435;23;20024;-62
2022/12/30 04:44:02;;;;;;;2.85;1.00;;;19.20;49.60;;;;;;6087693;23;20015;-62
2022/12/30 04:46:29;;;;;;;1.45;0.88;;;19.20;49.60;;;;;;6085098;23;20061;-62
2022/12/30 04:48:55;;;;;;;2.67;0.90;;;19.20;49.60;;;;;;6088981;23;20029;-61
2022/12/30 04:51:21;;;;;;;2.10;0.95;;;19.20;49.60;;;;;;6087722;23;20011;-62
2022/12/30 04:53:47;;;;;;;1.48;1.08;;;19.20;49.60;;;;;;6085074;23;20022;-62
2022/12/30 04:56:12;;;;;;;3.28;1.40;;;19.20;49.60;;;;;;6085327;23;20018;-62
2022/12/30 04:58:38;;;;;;;2.33;0.80;;;19.30;49.60;;;;;;6038474;23;20045;-61
2022/12/30 05:01:04;;;;;;;2.78;1.08;;;19.20;49.50;;;;;;6087107;23;20109;-62
2022/12/30 05:03:30;;;;;;;2.38;0.90;;;19.20;49.50;;;;;;6086180;23;20021;-62
2022/12/30 05:05:56;;;;;;;1.85;1.05;;;19.20;49.50;;;;;;6085550;23;20446;-62
2022/12/30 05:08:21;;;;;;;2.63;1.25;;;19.20;49.50;;;;;;6062536;23;20018;-62
2022/12/30 05:10:47;;;;;;;2.35;1.10;;;19.20;49.50;;;;;;6086356;23;20085;-62
2022/12/30 05:13:13;;;;;;;2.42;0.90;;;19.20;49.50;;;;;;6087873;23;20018;-62
2022/12/30 05:15:39;;;;;;;1.90;1.00;;;19.20;49.50;;;;;;6087446;23;20316;-62
2022/12/30 05:18:04;;;;;;;2.25;1.00;;;19.20;49.50;;;;;;6085569;23;20017;-61
2022/12/30 05:20:30;;;;;;;1.55;1.00;;;19.20;49.50;;;;;;6086766;23;20022;-62
2022/12/30 05:22:56;;;;;;;2.25;1.17;;;19.10;49.40;;;;;;6086096;23;20023;-61
2022/12/30 05:28:05;;;;;;;2.42;1.10;;;19.10;49.40;;;;;;6087069;23;20498;-62
2022/12/30 05:30:31;;;;;;;2.45;1.15;;;19.20;49.50;;;;;;6087105;23;20026;-62
2022/12/30 05:32:57;;;;;;;2.45;1.15;;;19.10;49.30;;;;;;6085565;23;20019;-62
2022/12/30 05:35:22;;;;;;;2.78;1.15;;;19.10;49.30;;;;;;6087608;23;20022;-62
2022/12/30 05:37:48;;;;;;;1.63;0.90;;;19.10;49.30;;;;;;6084448;23;20018;-62
2022/12/30 05:40:14;;;;;;;1.30;1.08;;;19.10;49.30;;;;;;6087950;23;20020;-62
2022/12/30 05:42:40;;;;;;;3.03;1.50;;;19.10;49.30;;;;;;6085012;23;20025;-61
2022/12/30 05:45:06;;;;;;;2.15;1.10;;;19.10;49.40;;;;;;6085374;23;20089;-62
2022/12/30 05:47:32;;;;;;;1.92;1.08;;;19.10;49.40;;;;;;6087536;23;20017;-62
2022/12/30 05:49:58;;;;;;;2.45;1.25;;;19.10;49.40;;;;;;6061918;23;20026;-62
2022/12/30 05:52:24;;;;;;;2.45;1.08;;;19.10;49.40;;;;;;6087964;23;20473;-62
2022/12/30 05:54:49;;;;;;;2.60;1.10;;;19.10;49.40;;;;;;6086079;23;20459;-62
2022/12/30 05:57:15;;;;;;;3.08;1.08;;;19.10;49.30;;;;;;6086961;23;20022;-62
2022/12/30 05:59:41;;;;;;;2.60;1.20;;;19.10;49.30;;;;;;6087739;23;20083;-61
2022/12/30 06:02:07;;;;;;;3.38;1.15;;;19.10;49.30;;;;;;6085309;23;20029;-61
2022/12/30 06:04:32;;;;;;;2.75;1.20;;;19.10;49.30;;;;;;6086619;23;20124;-61
2022/12/30 06:06:58;;;;;;;1.92;1.00;;;19.00;49.30;;;;;;6087019;23;20522;-60
2022/12/30 06:09:24;;;;;;;2.42;1.25;;;19.00;49.30;;;;;;6085735;23;20018;-62
2022/12/30 06:11:50;;;;;;;2.42;1.13;;;19.00;49.30;;;;;;6085459;23;20535;-62
2022/12/30 06:14:17;;;;;;;2.63;1.00;;;19.10;49.30;;;;;;6088196;23;20845;-62
2022/12/30 06:16:43;;;;;;;2.95;1.33;;;19.00;49.40;;;;;;6086198;23;20014;-61
2022/12/30 06:19:10;;;;;;;2.95;1.10;;;19.00;49.30;;;;;;6087658;23;20109;-62
2022/12/30 06:21:36;;;;;;;2.95;1.35;;;19.00;49.30;;;;;;6085471;23;20825;-62
2022/12/30 06:24:02;;;;;;;3.13;1.00;;;19.00;49.20;;;;;;6087700;23;20018;-62
2022/12/30 06:26:28;;;;;;;2.45;0.98;;;19.00;49.20;;;;;;6087795;23;20022;-62
2022/12/30 06:28:54;;;;;;;2.63;1.30;;;19.00;49.10;;;;;;6085435;23;20489;-62
2022/12/30 06:31:19;;;;;;;1.65;1.08;;;19.00;49.10;;;;;;6084853;23;20021;-62
2022/12/30 06:33:45;;;;;;;2.33;0.95;;;19.00;49.20;;;;;;6085271;23;20019;-61
2022/12/30 06:36:11;;;;;;;1.67;0.85;;;19.00;49.10;;;;;;6085917;23;20014;-62
2022/12/30 06:38:38;;;;;;;1.65;1.02;;;19.00;49.20;;;;;;6084353;23;20014;-62
2022/12/30 06:41:04;;;;;;;3.17;1.15;;;19.00;50.10;;;;;;6075138;23;20018;-61
2022/12/30 06:43:29;;;;;;;4.40;1.50;;;19.00;49.70;;;;;;6079415;23;20011;-61
2022/12/30 06:45:55;;;;;;;4.95;1.13;;;19.30;49.80;;;;;;6080650;23;20097;-62
2022/12/30 06:48:21;;;;;;;4.18;1.00;;;19.90;48.90;;;;;;6056453;23;20430;-62
2022/12/30 06:50:47;;;;;;;2.75;1.20;;;20.60;47.50;;;;;;6081484;23;20010;-61
2022/12/30 06:53:13;;;;;;;2.10;1.08;;;21.30;46.20;;;;;;6056305;23;20459;-63
2022/12/30 06:55:39;;;;;;;4.00;1.20;;;21.80;45.30;;;;;;6084098;23;20351;-62
2022/12/30 06:58:06;;;;;;;2.95;0.80;;;22.00;44.80;;;;;;6079828;23;20024;-62
2022/12/30 07:00:33;;;;;;;2.90;0.90;;;22.10;44.50;;;;;;6081995;23;20455;-62
2022/12/30 07:02:58;;;;;;;1.60;1.05;;;22.20;45.20;;;;;;6084365;23;20014;-62
2022/12/30 07:05:24;;;;;;;2.95;1.17;;;22.30;44.30;;;;;;6084394;23;20487;-62
2022/12/30 07:07:50;;;;;;;2.80;0.90;;;22.30;44.10;;;;;;6085713;23;20366;-62
2022/12/30 07:10:16;;;;;;;2.72;0.80;;;22.40;43.90;;;;;;6083983;23;20451;-63
2022/12/30 07:12:41;;;;;;;3.70;1.30;;;22.50;43.80;;;;;;6082533;23;20219;-59
2022/12/30 07:15:08;;;;;;;2.65;1.10;;;22.40;43.90;;;;;;6086735;23;20157;-62
2022/12/30 07:17:33;;;;;;;2.15;1.08;;;22.30;44.10;;;;;;6084628;23;20443;-65
2022/12/30 07:19:59;;;;;;;2.45;1.15;;;22.20;44.10;;;;;;6086151;23;20081;-65
2022/12/30 07:22:25;;;;;;;3.97;1.10;;;22.20;44.30;;;;;;6083495;23;20014;-64
2022/12/30 07:24:50;;;;;;;2.38;1.35;;;22.10;44.50;;;;;;6085368;23;20054;-61
2022/12/30 07:27:16;;;;;;;2.42;1.00;;;22.00;44.50;;;;;;6080839;23;20062;-62
2022/12/30 07:29:41;;;;;;;3.45;1.10;;;22.00;44.60;;;;;;6085726;23;20400;-62
2022/12/30 07:32:09;;;;;;;3.33;1.15;;;22.00;44.60;;;;;;6083852;23;20028;-62
2022/12/30 07:34:36;;;;;;;4.50;1.25;;;21.90;44.70;;;;;;6084863;23;20014;-62
2022/12/30 07:37:03;;;;;;;4.18;1.15;;;21.90;44.70;;;;;;6085480;23;20673;-61
2022/12/30 07:39:30;;;;;;;6.07;1.27;;;21.90;44.70;;;;;;6059123;23;20105;-62
2022/12/30 07:41:56;;;;;;;2.95;1.00;;;22.00;44.90;;;;;;6083462;23;20018;-62
2022/12/30 07:44:21;;;;;;;2.20;1.00;;;22.00;44.90;;;;;;6085569;23;20022;-60
2022/12/30 07:46:47;;;;;;;3.40;0.90;;;22.00;44.90;;;;;;6083611;23;20048;-62
2022/12/30 07:49:13;;;;;;;1.83;1.15;;;22.00;44.90;;;;;;6059198;23;20327;-62
2022/12/30 07:51:39;;;;;;;3.58;1.23;;;22.00;44.90;;;;;;6084582;23;20019;-61
2022/12/30 07:54:04;;;;;;;2.35;1.10;;;22.00;44.90;;;;;;6082944;23;20018;-60
2022/12/30 07:56:30;;;;;;;2.45;1.10;;;22.10;44.90;;;;;;6085872;23;20025;-63
2022/12/30 07:58:56;;;;;;;3.10;0.93;;;22.00;44.90;;;;;;6082967;23;20545;-64
2022/12/30 08:01:22;;;;;;;2.00;1.08;;;22.00;44.90;;;;;;6058004;23;20023;-65
2022/12/30 08:03:47;;;;;;;6.30;1.17;;;22.00;45.00;;;;;;6070269;23;20772;-62
2022/12/30 08:06:16;;;;;;;2.17;1.10;;;22.00;45.00;;;;;;6077919;23;20411;-61
2022/12/30 08:08:42;;;;;;;3.40;1.27;;;22.10;45.00;;;;;;6083218;23;20022;-61
2022/12/30 08:11:09;;;;;;;3.47;1.40;;;22.10;45.00;;;;;;6084199;23;20149;-64
2022/12/30 08:13:37;;;;;;;6.28;1.95;;;22.10;45.00;;;;;;6085977;23;20010;-64
2022/12/30 08:16:08;;;;;;;5.65;1.30;;;22.00;45.80;;;;;;6085793;23;20022;-62
2022/12/30 08:18:34;;;;;;;3.63;1.65;;;22.10;45.10;;;;;;6085209;23;20101;-59
2022/12/30 08:21:01;;;;;;;3.28;1.55;;;22.10;45.00;;;;;;6060630;23;20125;-61
2022/12/30 08:23:29;;;;;;;2.97;1.25;;;22.10;45.00;;;;;;6085246;23;20089;-60
2022/12/30 08:25:55;;;;;;;3.15;1.38;;;22.10;45.00;;;;;;6088315;23;20760;-62
2022/12/30 08:28:20;;;;;;;3.83;1.38;;;22.10;44.90;;;;;;6088566;23;20014;-64
2022/12/30 08:30:46;;;;;;;4.22;1.27;;;22.10;44.90;;;;;;6084269;23;20022;-65
2022/12/30 08:33:12;;;;;;;4.95;1.52;;;22.10;44.90;;;;;;6061645;23;20073;-65
2022/12/30 08:35:37;;;;;;;4.20;1.67;;;22.00;44.90;;;;;;6086239;23;20010;-65
2022/12/30 08:38:03;;;;;;;2.85;1.48;;;22.10;44.90;;;;;;6086102;23;20268;-65
2022/12/30 08:40:33;;;;;;;5.32;1.58;;;22.00;44.80;;;;;;6086274;23;20089;-65
2022/12/30 08:42:59;;;;;;;4.57;1.58;;;22.00;44.60;;;;;;6061854;23;20022;-65
2022/12/30 08:45:25;;;;;;;3.60;1.80;;;22.10;44.50;;;;;;6086785;23;20320;-65
2022/12/30 08:47:50;;;;;;;4.38;1.67;;;22.10;44.40;;;;;;6087450;23;20340;-63
2022/12/30 08:50:16;;;;;;;2.88;1.25;;;22.10;44.30;;;;;;6086648;23;20064;-65
2022/12/30 08:52:42;;;;;;;3.42;1.50;;;22.10;44.20;;;;;;6086151;23;20026;-65
2022/12/30 08:55:08;;;;;;;4.80;1.20;;;22.10;44.90;;;;;;6088736;23;20015;-66
2022/12/30 08:57:37;;;;;;;2.63;1.20;;;22.10;44.10;;;;;;6062608;23;20018;-65
2022/12/30 09:00:03;;;;;;;3.35;1.52;;;22.10;44.00;;;;;;6089286;23;20108;-65
2022/12/30 09:02:29;;;;;;;3.80;1.50;;;22.10;44.00;;;;;;6085881;23;20424;-66
2022/12/30 09:04:54;;;;;;;4.50;1.30;;;22.10;44.00;;;;;;6088382;23;20189;-66
2022/12/30 09:07:20;;;;;;;4.65;1.58;;;22.10;44.00;;;;;;6088348;23;20065;-65
2022/12/30 09:09:46;;;;;;;3.80;1.80;;;22.10;44.00;;;;;;6086632;23;20498;-65
2022/12/30 09:12:11;;;;;;;2.53;1.20;;;22.10;43.90;;;;;;6085013;23;20268;-65
2022/12/30 09:14:37;;;;;;;2.55;1.20;;;22.10;43.80;;;;;;6085860;23;20019;-65
2022/12/30 09:17:02;;;;;;;4.35;1.67;;;22.10;43.70;;;;;;6085459;23;20018;-65
2022/12/30 09:19:28;;;;;;;2.17;1.20;;;22.20;43.70;;;;;;6086294;23;20018;-65
2022/12/30 09:21:54;;;;;;;2.95;1.40;;;22.10;44.40;;;;;;6087504;23;20014;-65
2022/12/30 09:24:20;;;;;;;4.18;1.42;;;22.10;43.60;;;;;;6087946;23;20339;-65
2022/12/30 09:26:46;;;;;;;2.75;1.33;;;22.20;43.60;;;;;;6085258;23;20010;-65
2022/12/30 09:29:14;;;;;;;2.75;1.20;;;22.20;43.50;;;;;;6062018;23;20021;-65
2022/12/30 09:31:39;;;;;;;4.32;1.30;;;22.20;43.40;;;;;;6085634;23;20022;-65
2022/12/30 09:34:05;;;;;;;3.78;1.73;;;22.20;43.40;;;;;;6087583;23;20014;-66
2022/12/30 09:36:31;;;;;;;2.97;1.27;;;22.20;43.30;;;;;;6062069;23;20089;-65
2022/12/30 09:38:56;;;;;;;3.42;1.40;;;22.20;43.30;;;;;;6088504;23;20081;-65
2022/12/30 09:45:12;;;;;;;2.15;1.00;;;22.20;43.20;;;;;;6084980;23;20050;-64
2022/12/30 09:47:50;;;;;;;2.80;1.10;;;22.20;43.20;;;;;;6084744;23;20010;-64
2022/12/30 09:50:22;;;;;;;4.32;1.30;;;22.20;43.30;;;;;;6087758;23;20011;-63
2022/12/30 09:53:08;;;;;;;6.80;1.55;;;22.20;43.40;;;;;;6060424;23;20023;-63
2022/12/30 09:55:56;;;;;;;3.97;1.40;;;22.20;43.40;;;;;;6085497;23;20022;-64
2022/12/30 09:58:28;;;;;;;4.25;1.30;;;22.20;43.30;;;;;;6085585;23;20025;-63
2022/12/30 10:00:53;;;;;;;7.75;1.90;;;22.20;43.50;;;;;;6086626;23;20068;-65
2022/12/30 10:03:20;;;;;;;9.93;1.65;;;22.20;43.60;;;;;;6084935;23;20093;-64
2022/12/30 10:05:51;;;;;;;6.32;1.23;;;22.10;43.50;;;;;;6085577;23;20166;-63
2022/12/30 10:08:36;;;;;;;;;;;22.10;43.50;;;;;;6088067;23;20335;-65
2022/12/30 10:11:34;;;;;;;6.85;1.38;;;22.20;43.50;;;;;;6085315;23;19917;-64
2022/12/30 10:14:18;;;;;;;6.80;1.20;;;22.10;43.60;;;;;;6037478;23;20022;-63
2022/12/30 10:16:59;;;;;;;4.20;1.27;;;22.20;43.50;;;;;;6083190;23;20037;-66
2022/12/30 10:19:45;;;;;;;3.72;1.10;;;22.20;43.50;;;;;;6085498;23;20042;-64
2022/12/30 10:22:43;;;;;;;3.60;1.33;;;22.20;43.60;;;;;;6084402;23;20014;-65
2022/12/30 10:25:24;;;;;;;4.07;1.20;;;22.20;43.50;;;;;;6084845;23;20022;-65
2022/12/30 10:27:55;;;;;;;7.55;1.38;;;22.20;43.50;;;;;;6084316;23;20018;-66
2022/12/30 10:30:33;;;;;;;3.38;0.95;;;22.20;43.50;;;;;;6085329;23;20343;-66
2022/12/30 10:33:15;;;;;;;2.47;1.08;;;22.20;43.50;;;;;;6058211;23;20056;-65
2022/12/30 10:35:42;;;;;;;2.38;1.25;;;22.20;43.50;;;;;;6086848;23;20049;-64
2022/12/30 10:38:17;;;;;;;4.63;1.33;;;22.20;43.50;;;;;;6060848;23;20446;-65
2022/12/30 10:41:01;;;;;;;4.57;1.25;;;22.20;43.40;;;;;;6084978;23;20029;-66
2022/12/30 10:43:43;;;;;;;4.10;1.38;;;22.20;43.40;;;;;;6087829;23;20025;-64
2022/12/30 10:46:50;;;;;;;3.03;1.42;;;22.30;43.40;;;;;;6087869;23;20085;-65
2022/12/30 10:49:44;;;;;;;3.20;1.10;;;22.30;43.40;;;;;;6086023;23;20047;-64
2022/12/30 10:52:12;;;;;;;5.50;1.20;;;22.30;43.30;;;;;;6086363;23;20091;-64
2022/12/30 10:54:37;;;;;;;3.38;1.08;;;22.30;43.30;;;;;;6058765;23;20145;-65
2022/12/30 10:57:03;;;;;;;4.40;1.30;;;22.30;43.30;;;;;;6081495;23;20115;-65
2022/12/30 10:59:31;;;;;;;3.58;1.30;;;22.30;43.20;;;;;;6051932;23;20048;-65
2022/12/30 11:02:15;;;;;;;2.00;1.38;;;22.30;43.20;;;;;;6073392;23;20121;-66
2022/12/30 11:04:42;;;;;;;3.00;1.10;;;22.30;43.10;;;;;;6075200;23;20018;-65
2022/12/30 11:07:13;;;;;;;2.25;1.10;;;22.30;43.20;;;;;;6080260;23;20017;-65
2022/12/30 11:09:39;;;;;;;2.47;1.10;;;22.30;43.20;;;;;;6076886;23;20025;-65
2022/12/30 11:15:18;;;;;;;1.88;1.00;;;22.30;43.10;;;;;;6036348;23;20106;-63
2022/12/30 11:17:53;;;;;;;1.75;0.98;;;22.30;43.10;;;;;;6056205;23;20025;-64
2022/12/30 11:20:30;;;;;;;1.73;0.80;;;22.30;43.10;;;;;;6083220;23;20064;-65
2022/12/30 11:22:57;;;;;;;3.70;1.00;;;22.30;43.10;;;;;;6081813;23;20018;-65
2022/12/30 11:25:33;;;;;;;1.40;0.95;;;22.30;43.10;;;;;;6057205;23;20460;-65
2022/12/30 11:28:02;;;;;;;1.63;0.93;;;22.40;43.10;;;;;;6080595;23;20089;-65
2022/12/30 11:30:30;;;;;;;2.05;1.10;;;22.40;43.10;;;;;;6082003;23;20022;-64
2022/12/30 11:32:58;;;;;;;2.80;1.00;;;22.30;43.00;;;;;;6056983;23;20022;-67
2022/12/30 11:35:41;;;;;;;2.78;0.88;;;22.40;43.10;;;;;;6084410;23;20029;-65
2022/12/30 11:38:27;;;;;;;2.17;1.10;;;22.40;43.00;;;;;;6060634;23;20511;-65
2022/12/30 11:40:53;;;;;;;2.17;1.10;;;22.40;42.90;;;;;;6086687;23;20050;-65
2022/12/30 11:43:20;;;;;;;0.95;0.85;;;22.40;43.00;;;;;;6084800;23;20041;-64
2022/12/30 11:45:54;;;;;;;3.20;1.20;;;22.40;43.00;;;;;;6084888;23;20335;-65
2022/12/30 11:48:33;;;;;;;1.42;1.10;;;22.40;42.90;;;;;;6056142;23;20069;-65
2022/12/30 11:51:02;;;;;;;1.88;0.90;;;22.40;42.90;;;;;;6080819;23;20037;-64
2022/12/30 11:53:35;;;;;;;2.72;1.00;;;22.40;42.90;;;;;;6055276;23;20093;-64
2022/12/30 11:56:01;;;;;;;1.20;0.80;;;22.40;42.90;;;;;;6056760;23;20059;-63
2022/12/30 11:58:33;;;;;;;2.05;0.90;;;22.40;42.90;;;;;;6055225;23;20010;-64
2022/12/30 12:01:07;;;;;;;1.58;0.73;;;22.40;42.80;;;;;;6082855;23;20025;-65
2022/12/30 12:03:57;;;;;;;1.38;0.80;;;22.40;42.90;;;;;;6079106;23;20025;-64
2022/12/30 12:06:22;;;;;;;2.05;0.88;;;22.40;42.70;;;;;;6079168;23;20018;-65
2022/12/30 12:09:03;;;;;;;1.75;1.00;;;22.40;42.70;;;;;;6078206;23;20033;-65
2022/12/30 12:11:33;;;;;;;1.35;0.70;;;22.40;42.80;;;;;;6078766;23;20018;-64
2022/12/30 12:14:11;;;;;;;2.22;1.20;;;22.30;42.90;;;;;;6055935;23;20022;-65
2022/12/30 12:17:08;;;;;;;5.00;1.25;;;22.30;43.00;;;;;;6078068;23;20339;-65
2022/12/30 12:20:03;;;;;;;1.83;0.90;;;22.30;43.00;;;;;;6079795;23;20398;-69
2022/12/30 12:22:52;;;;;;;2.40;1.17;;;22.30;43.10;;;;;;6054609;23;20418;-70
2022/12/30 12:25:23;;;;;;;2.65;1.10;;;22.30;43.20;;;;;;6056084;23;20042;-70
2022/12/30 12:27:50;;;;;;;2.80;1.17;;;22.40;43.30;;;;;;6056977;23;20495;-72
2022/12/30 12:30:16;;;;;;;4.03;1.30;;;22.40;43.60;;;;;;6082194;23;20022;-71
2022/12/30 12:32:57;;;;;;;2.50;1.15;;;22.40;43.80;;;;;;6056967;23;20019;-71
2022/12/30 12:35:44;;;;;;;3.17;1.50;;;22.40;44.00;;;;;;6057054;23;20423;-69
2022/12/30 12:38:35;;;;;;;3.65;0.95;;;22.40;44.00;;;;;;6080473;23;20018;-71
2022/12/30 12:41:10;;;;;;;3.45;1.10;;;22.40;44.10;;;;;;6080249;23;20021;-70
2022/12/30 12:43:57;;;;;;;4.10;1.15;;;22.40;44.10;;;;;;6056793;23;20014;-70
2022/12/30 12:46:51;;;;;;;2.17;1.05;;;22.40;44.00;;;;;;6081706;23;20018;-71
2022/12/30 12:49:19;;;;;;;1.90;1.13;;;22.40;44.00;;;;;;6081829;23;20117;-69
2022/12/30 12:51:55;;;;;;;2.35;1.27;;;22.40;44.10;;;;;;6057798;23;20514;-70
2022/12/30 12:54:54;;;;;;;2.15;0.73;;;22.40;44.00;;;;;;6082833;23;20014;-69
2022/12/30 12:57:26;;;;;;;2.00;0.90;;;22.50;44.00;;;;;;6081917;23;20021;-69
2022/12/30 13:00:11;;;;;;;1.75;1.00;;;22.50;44.10;;;;;;6081446;23;20712;-71
2022/12/30 13:02:51;;;;;;;1.83;1.00;;;22.40;44.00;;;;;;6058083;23;20018;-71
2022/12/30 13:05:38;;;;;;;2.35;1.15;;;22.40;43.90;;;;;;6060215;23;20022;-71
2022/12/30 13:08:15;;;;;;;2.08;1.10;;;22.50;44.00;;;;;;6085261;23;20053;-70
2022/12/30 13:10:49;;;;;;;1.95;0.80;;;22.40;43.90;;;;;;6086239;23;20869;-71
2022/12/30 13:13:25;;;;;;;1.63;0.98;;;22.40;43.90;;;;;;6061023;23;20081;-71
2022/12/30 13:15:56;;;;;;;1.60;0.77;;;22.40;43.80;;;;;;6084837;23;20010;-70
2022/12/30 13:18:23;;;;;;;;;;;22.40;43.90;;;;;;6087040;23;20018;-70
2022/12/30 13:20:58;;;;;;;2.08;1.00;;;22.40;43.70;;;;;;6061678;23;19921;-70
2022/12/30 13:23:27;;;;;;;1.08;0.60;;;22.40;43.90;;;;;;6086931;23;20061;-71
2022/12/30 13:25:58;;;;;;;2.47;1.10;;;22.40;43.90;;;;;;6087221;23;20075;-69
2022/12/30 13:28:29;;;;;;;1.55;0.93;;;22.40;43.70;;;;;;6062796;23;20014;-70
2022/12/30 13:31:13;;;;;;;;;;;22.40;43.60;;;;;;6063397;23;20022;-70
2022/12/30 13:33:55;;;;;;;3.60;1.15;;;22.40;43.70;;;;;;6086966;23;19925;-71
2022/12/30 13:36:42;;;;;;;1.83;0.90;;;22.40;43.70;;;;;;6062800;23;20014;-71
2022/12/30 13:39:37;;;;;;;3.58;1.50;;;22.40;43.50;;;;;;6063396;23;20637;-71
2022/12/30 13:42:06;;;;;;;1.85;0.90;;;22.40;43.50;;;;;;6062733;23;20053;-73
2022/12/30 13:44:41;;;;;;;2.15;1.08;;;22.40;43.50;;;;;;6062139;23;20026;-60
2022/12/30 13:47:39;;;;;;;2.72;1.20;;;22.40;43.40;;;;;;6086519;23;20078;-61
2022/12/30 13:50:27;;;;;;;2.38;1.20;;;22.40;43.50;;;;;;6089857;23;20108;-63
2022/12/30 13:52:55;;;;;;;3.15;1.08;;;22.40;43.60;;;;;;6084419;23;20089;-61
2022/12/30 13:55:29;;;;;;;4.03;1.17;;;22.40;43.60;;;;;;6087530;23;20038;-64
2022/12/30 13:58:12;;;;;;;2.90;1.00;;;22.40;43.50;;;;;;6087809;23;20022;-62
2022/12/30 14:00:39;;;;;;;4.07;1.10;;;22.40;43.50;;;;;;6088058;23;20014;-62
2022/12/30 14:03:25;;;;;;;3.35;1.40;;;22.40;43.50;;;;;;6086128;23;20109;-62
2022/12/30 14:05:54;;;;;;;1.55;0.95;;;22.50;43.30;;;;;;6066650;23;20050;-65
2022/12/30 14:08:40;;;;;;;2.53;1.20;;;22.40;43.30;;;;;;6088614;23;20093;-61